This is the latest recevied weather packets stored in our database for station/object N8QQ. If no packets are shown the sender has not sent any weather packets the latest 10 day(s).
| Time | Temp. | Humidity | Pressure | Rain* | Wind** | Luminosity | Snow |
|---|---|---|---|---|---|---|---|
| 1777507822 | 15° C | 68% | 1006.9 hPa | 0 mm | - | - | - |
| 1777506648 | 15.56° C | 67% | 1006.7 hPa | 0 mm | - | - | - |
| 1777505417 | 16.67° C | 65% | 1006.8 hPa | 0 mm | - | - | - |
| 1777499431 | 17.78° C | 65% | 1005.9 hPa | 0 mm | - | - | - |
| 1777492823 | 17.22° C | 75% | 1005.8 hPa | 0 mm | - | - | - |
| 1777491025 | 17.78° C | 77% | 1005.7 hPa | 0 mm | - | - | - |
| 1777487432 | 16.67° C | 86% | 1005.6 hPa | 0 mm | - | - | - |
| 1777480872 | 13.89° C | 99% | 1005.6 hPa | 0.25 mm | - | - | - |
| 1777474825 | 13.89° C | 99% | 1005.2 hPa | 1.02 mm | - | - | - |
| 1777474229 | 13.89° C | 99% | 1005.3 hPa | 3.05 mm | - | - | - |
| 1777465818 | 13.89° C | 99% | 1005.8 hPa | 0 mm | - | - | - |
| 1777461621 | 13.89° C | 99% | 1006 hPa | 0 mm | - | - | - |
| 1777461045 | 13.33° C | 99% | 1005.9 hPa | 0 mm | - | - | - |
| 1777460428 | 13.33° C | 99% | 1005.8 hPa | 0 mm | - | - | - |
| 1777456231 | 13.89° C | 99% | 1005.3 hPa | 0 mm | - | - | - |
| 1777455020 | 13.89° C | 99% | 1005.3 hPa | 0 mm | - | - | - |
| 1777453223 | 13.89° C | 99% | 1005.4 hPa | 0 mm | - | - | - |
| 1777450817 | 14.44° C | 99% | 1005.6 hPa | 0 mm | - | - | - |
| 1777446024 | 15° C | 99% | 1006.7 hPa | 0 mm | - | - | - |
| 1777433452 | 16.67° C | 88% | 1007.4 hPa | 0 mm | - | - | - |
| 1777432833 | 16.67° C | 85% | 1007.9 hPa | 0 mm | - | - | - |
| 1777432218 | 16.67° C | 84% | 1008.2 hPa | 0 mm | - | - | - |
| 1777431620 | 17.22° C | 83% | 1008.5 hPa | 0 mm | - | - | - |
| 1777430426 | 17.22° C | 83% | 1008.8 hPa | 0 mm | - | - | - |
| 1777426816 | 17.22° C | 84% | 1008.2 hPa | 0 mm | - | - | - |
* Rain latest hour (hover to see other rain measurements)
** Current wind speed in m/s (hover to see current wind gust speed)